Hutchinson County Airport - Borger, Texas, United States - FAA: BGD - ICAO: KBGD - IATA: BGD

 
  Longest Runway: 6,300 feet   Approach Types:    Customs Landing Rights Airport: No   Port of Entry: No

Local Forecast

This Afternoon (2/26): Partly sunny, with a high near 60. East wind 5 to 10 mph.

Tonight (2/26): Mostly cloudy, then gradually becoming mostly clear, with a low around 34. East northeast wind 5 to 10 mph becoming south southwest after midnight.

Monday (2/27): Sunny, with a high near 71. Wind chill values between 27 and 37 early. Southwest wind 5 to 10 mph increasing to 15 to 20 mph in the afternoon. Winds could gust as high as 25 mph.

Monday Night (2/27): Partly cloudy, with a low around 46. Southwest wind around 15 mph, with gusts as high as 25 mph.

Tuesday (2/28): Partly sunny, with a high near 72. Very windy, with a southwest wind 15 to 25 mph increasing to 25 to 35 mph in the afternoon. Winds could gust as high as 45 mph.

Tuesday Night (2/28): Partly cloudy, with a low around 34. Breezy, with a west southwest wind 20 to 25 mph becoming north northwest 15 to 20 mph after midnight. Winds could gust as high as 35 mph.

Wednesday (3/1): Sunny, with a high near 54. North wind 10 to 15 mph.



Current Weather (METAR)

2017/02/26 18:51 KBGD 261851Z AUTO 06006KT 10SM CLR 12/M14 A2987 RMK AO2 SLP111 T01221144

BORGER HUTCHINSON CO AIRPORT , TX, United States (KBGD) 35-42N 101-24W 927M Feb 26, 2017 - 01:51 PM EST / 2017.02.26 1851 UTC Wind: from the ENE (060 degrees) at 7 MPH (6 KT):0 Visibility: 10 mile(s):0 Sky conditions: clear Temperature: 54.0 F (12.2 C) Dew Point: 6.1 F (-14.4 C) Relative Humidity: 14% Pressure (altimeter): 29.87 in. Hg (1011 hPa) ob: KBGD 261851Z AUTO 06006KT 10SM CLR 12/M14 A2987 RMK AO2 SLP111 T01221144 cycle: 19

Terminal Forecast (TAF)